Time;durP1;ratioP1;P1;durP2;ratioP2;P2;SDS_P1;SDS_P2;PMS_P1;PMS_P2;Temp;Humidity;BMP_temperature;BMP_pressure;BME280_temperature;BME280_humidity;BME280_pressure;Samples;Min_cycle;Max_cycle;Signal;HPM_P1;HPM_P2
2023/03/04 00:02:05;;;;;;;19.73;3.10;;;;;;;13.52;41.55;102812.78;5070164;28;20029;-67
2023/03/04 00:04:30;;;;;;;16.33;2.47;;;;;;;13.12;42.27;102819.34;5069648;28;20488;-67
2023/03/04 00:06:55;;;;;;;16.93;2.57;;;;;;;12.26;44.84;102830.50;5069766;28;20115;-67
2023/03/04 00:09:21;;;;;;;13.40;2.13;;;;;;;13.06;42.41;102821.06;5069132;28;20024;-68
2023/03/04 00:11:46;;;;;;;13.87;2.50;;;;;;;12.59;43.54;102823.97;5070629;28;20103;-67
2023/03/04 00:14:12;;;;;;;13.67;2.30;;;;;;;12.82;43.59;102826.00;5070043;28;20028;-67
2023/03/04 00:16:37;;;;;;;10.30;2.57;;;;;;;12.39;44.60;102826.28;5070659;28;20032;-67
2023/03/04 00:19:04;;;;;;;23.57;2.03;;;;;;;12.72;43.49;102825.88;5068874;28;20070;-67
2023/03/04 00:21:30;;;;;;;17.63;1.73;;;;;;;12.69;43.78;102825.84;5070206;28;20504;-67
2023/03/04 00:23:55;;;;;;;20.07;2.00;;;;;;;12.43;44.32;102822.00;5062655;28;20036;-67
2023/03/04 00:26:21;;;;;;;10.00;1.73;;;;;;;13.24;42.53;102816.84;5070361;28;20051;-67
2023/03/04 00:28:47;;;;;;;19.17;2.07;;;;;;;12.80;43.33;102823.34;5070952;28;20063;-67
2023/03/04 00:31:12;;;;;;;22.67;3.00;;;;;;;12.75;43.97;102821.53;5070145;28;20052;-67
2023/03/04 00:33:39;;;;;;;13.47;2.13;;;;;;;12.46;43.99;102822.03;5068223;28;20090;-67
2023/03/04 00:36:04;;;;;;;12.60;2.50;;;;;;;12.54;44.55;102826.53;5071501;28;20032;-67
2023/03/04 00:38:30;;;;;;;21.07;2.87;;;;;;;12.46;44.08;102820.31;5069020;28;20020;-67
2023/03/04 00:40:55;;;;;;;12.60;1.97;;;;;;;13.03;43.44;102815.75;5068981;28;20423;-67
2023/03/04 00:43:21;;;;;;;23.37;3.07;;;;;;;12.56;43.69;102823.94;5067963;28;20028;-67
2023/03/04 00:45:47;;;;;;;15.50;2.43;;;;;;;12.79;43.91;102825.94;5068682;28;20044;-67
2023/03/04 00:48:13;;;;;;;14.77;2.57;;;;;;;12.50;44.11;102824.72;5069871;28;20106;-67
2023/03/04 00:50:38;;;;;;;17.80;3.03;;;;;;;13.21;42.91;102808.94;5070914;28;20028;-67
2023/03/04 00:53:04;;;;;;;15.27;2.90;;;;;;;13.32;42.85;102817.81;5067220;28;20025;-67
2023/03/04 00:55:30;;;;;;;14.87;2.47;;;;;;;12.93;43.70;102813.88;5070108;28;20028;-67
2023/03/04 00:57:55;;;;;;;19.63;2.37;;;;;;;13.83;42.06;102809.53;5070950;28;20425;-67
2023/03/04 01:00:21;;;;;;;10.73;2.63;;;;;;;13.58;41.94;102811.97;5068678;28;20020;-67
2023/03/04 01:02:46;;;;;;;17.00;2.50;;;;;;;13.26;42.99;102812.50;5067780;28;20032;-67
2023/03/04 01:05:12;;;;;;;12.23;2.20;;;;;;;12.57;44.26;102820.44;5069665;28;20036;-67
2023/03/04 01:07:37;;;;;;;15.00;3.63;;;;;;;13.40;42.55;102816.16;5069838;28;20447;-67
2023/03/04 01:10:04;;;;;;;12.67;2.30;;;;;;;13.77;42.42;102814.75;5068455;28;20444;-67
2023/03/04 01:12:30;;;;;;;20.63;2.97;;;;;;;14.14;41.32;102820.28;5069334;28;20515;-67
2023/03/04 01:14:55;;;;;;;15.07;2.60;;;;;;;12.47;45.14;102824.66;5069224;28;20052;-67
2023/03/04 01:17:20;;;;;;;19.77;3.23;;;;;;;13.18;42.98;102820.28;5069026;28;20020;-67
2023/03/04 01:19:46;;;;;;;15.13;3.20;;;;;;;12.82;44.52;102823.38;5067880;28;20028;-67
2023/03/04 01:22:13;;;;;;;18.87;3.77;;;;;;;13.23;43.21;102808.09;5068525;28;20060;-67
2023/03/04 01:24:39;;;;;;;15.97;3.90;;;;;;;12.16;45.29;102815.50;5068711;28;20021;-67
2023/03/04 01:27:04;;;;;;;16.97;5.30;;;;;;;11.98;45.64;102811.72;5068384;28;20901;-67
2023/03/04 01:29:30;;;;;;;17.47;4.57;;;;;;;11.95;45.72;102811.69;5067309;28;20020;-67
2023/03/04 01:31:55;;;;;;;18.77;4.97;;;;;;;11.85;46.24;102804.50;5069379;28;20114;-67
2023/03/04 01:34:21;;;;;;;16.93;4.33;;;;;;;12.45;44.53;102792.31;5069920;28;20030;-67
2023/03/04 01:36:46;;;;;;;18.07;3.77;;;;;;;13.46;42.23;102789.06;5067597;28;20059;-67
2023/03/04 01:39:11;;;;;;;13.60;3.80;;;;;;;13.31;42.46;102784.53;5069822;28;20112;-67
2023/03/04 01:41:37;;;;;;;19.93;3.90;;;;;;;13.04;43.70;102785.16;5067464;28;20068;-67
2023/03/04 01:44:02;;;;;;;18.77;3.90;;;;;;;14.08;41.48;102785.19;5067768;28;20151;-67
2023/03/04 01:46:30;;;;;;;16.93;3.60;;;;;;;14.27;41.02;102785.28;5068156;28;20519;-67
2023/03/04 01:48:55;;;;;;;12.50;3.07;;;;;;;14.52;40.63;102785.41;5068429;28;20077;-67
2023/03/04 01:51:22;;;;;;;13.87;3.73;;;;;;;13.61;42.04;102782.19;5083685;28;20021;-67
2023/03/04 01:53:50;;;;;;;15.37;4.37;;;;;;;13.62;42.28;102782.22;5069081;28;20434;-67
2023/03/04 01:56:34;;;;;;;24.87;3.67;;;;;;;13.05;43.25;102774.66;5067859;28;20170;-67
2023/03/04 01:59:13;;;;;;;16.30;4.20;;;;;;;13.38;42.76;102769.72;5069906;28;20028;-67
2023/03/04 02:01:41;;;;;;;16.93;3.80;;;;;;;13.61;42.61;102766.44;5068170;28;20526;-67
2023/03/04 02:04:08;;;;;;;21.77;3.83;;;;;;;13.03;43.06;102752.75;5068325;28;20047;-67
2023/03/04 02:06:36;;;;;;;18.63;4.03;;;;;;;12.64;44.38;102756.69;5066883;28;20551;-67
2023/03/04 02:09:02;;;;;;;21.93;4.70;;;;;;;12.81;43.29;102753.38;5049680;28;20044;-67
2023/03/04 02:11:28;;;;;;;24.73;4.00;;;;;;;12.16;44.75;102760.44;5048308;28;20021;-67
2023/03/04 02:13:53;;;;;;;14.40;3.30;;;;;;;13.28;42.65;102752.97;5047695;28;20029;-67
2023/03/04 02:16:18;;;;;;;22.20;3.30;;;;;;;14.24;40.67;102745.81;5063525;28;20028;-67
2023/03/04 02:18:44;;;;;;;20.03;3.73;;;;;;;13.81;41.33;102749.06;5069067;28;20052;-67
2023/03/04 02:21:25;;;;;;;18.00;3.20;;;;;;;13.94;41.63;102739.50;5066678;28;20032;-67
2023/03/04 02:23:56;;;;;;;14.93;3.57;;;;;;;13.05;42.58;102737.91;5065748;28;20028;-67
2023/03/04 02:26:32;;;;;;;18.80;3.03;;;;;;;13.46;42.80;102738.28;5068107;28;20107;-67
2023/03/04 02:28:59;;;;;;;15.10;2.90;;;;;;;13.69;42.16;102736.72;5067680;28;20078;-67
2023/03/04 02:31:24;;;;;;;14.00;2.70;;;;;;;12.62;43.80;102734.78;5067493;28;20059;-67
2023/03/04 02:33:52;;;;;;;16.80;4.27;;;;;;;12.21;44.77;102743.03;5065672;28;20492;-67
2023/03/04 02:36:18;;;;;;;13.17;2.37;;;;;;;12.16;44.65;102739.47;5061179;28;20020;-67
2023/03/04 02:38:43;;;;;;;13.50;2.73;;;;;;;12.45;44.76;102736.34;5048258;28;20052;-67
2023/03/04 02:41:15;;;;;;;14.10;2.30;;;;;;;13.25;42.50;102731.94;5062156;28;20369;-67
2023/03/04 02:43:42;;;;;;;18.73;3.00;;;;;;;13.35;42.59;102723.34;5066356;28;20551;-67
2023/03/04 02:46:11;;;;;;;14.40;2.37;;;;;;;13.37;42.13;102725.97;5067615;28;20054;-67
2023/03/04 02:48:36;;;;;;;16.73;2.20;;;;;;;13.57;41.36;102726.09;5068569;28;20051;-67
2023/03/04 02:51:02;;;;;;;14.30;4.03;;;;;;;13.07;41.86;102717.78;5080941;28;20629;-67
2023/03/04 02:53:27;;;;;;;9.90;2.50;;;;;;;12.54;44.18;102716.38;5067750;28;20387;-67
2023/03/04 02:55:53;;;;;;;16.13;2.40;;;;;;;12.36;43.71;102722.28;5067760;28;20032;-67
2023/03/04 02:58:18;;;;;;;14.40;2.40;;;;;;;12.81;43.04;102714.03;5066943;28;20441;-67
2023/03/04 03:00:43;;;;;;;14.67;2.50;;;;;;;12.85;43.10;102713.19;5066202;28;20029;-67
2023/03/04 03:03:09;;;;;;;19.57;2.87;;;;;;;12.90;42.76;102711.50;5066064;28;20131;-67
2023/03/04 03:05:36;;;;;;;18.40;2.93;;;;;;;12.63;43.01;102714.72;5067815;28;20020;-67
2023/03/04 03:08:03;;;;;;;16.70;2.13;;;;;;;12.47;43.70;102718.88;5066195;28;20025;-67
2023/03/04 03:10:28;;;;;;;11.87;2.10;;;;;;;13.55;41.68;102712.97;5056064;28;20039;-67
2023/03/04 03:12:53;;;;;;;11.70;1.90;;;;;;;12.95;42.67;102715.03;5063768;28;20024;-67
2023/03/04 03:15:19;;;;;;;13.83;2.20;;;;;;;12.48;43.67;102716.28;5067105;28;20052;-67
2023/03/04 03:17:44;;;;;;;22.47;2.00;;;;;;;12.99;42.51;102711.56;5066508;28;20028;-67
2023/03/04 03:20:12;;;;;;;21.40;2.10;;;;;;;13.30;42.07;102709.25;5066394;28;20021;-67
2023/03/04 03:22:38;;;;;;;11.27;2.00;;;;;;;13.32;42.57;102712.75;5066273;28;20028;-67
2023/03/04 03:25:04;;;;;;;14.37;2.10;;;;;;;13.36;41.76;102719.81;5066711;28;20048;-67
2023/03/04 03:27:30;;;;;;;9.47;1.67;;;;;;;13.34;42.61;102716.28;5065695;28;20035;-67
2023/03/04 03:29:55;;;;;;;15.23;1.50;;;;;;;13.89;41.35;102712.34;5062101;28;20029;-67
2023/03/04 03:32:21;;;;;;;13.00;1.90;;;;;;;13.64;41.78;102709.53;5047350;28;20025;-67
2023/03/04 03:34:46;;;;;;;13.83;1.73;;;;;;;13.72;41.55;102702.59;5053572;28;20029;-67
2023/03/04 03:37:12;;;;;;;12.10;1.50;;;;;;;13.31;42.48;102705.75;5067232;28;20125;-67
2023/03/04 03:39:38;;;;;;;13.43;1.50;;;;;;;14.05;41.16;102701.03;5065673;28;20434;-68
2023/03/04 03:42:03;;;;;;;12.93;2.00;;;;;;;13.15;42.85;102701.25;5065572;28;20028;-67
2023/03/04 03:44:28;;;;;;;11.93;2.43;;;;;;;12.60;44.31;102704.16;5066220;28;20056;-67
2023/03/04 03:46:54;;;;;;;12.37;1.80;;;;;;;12.54;44.57;102707.59;5066286;28;20447;-67
2023/03/04 03:49:19;;;;;;;16.47;3.33;;;;;;;12.92;43.30;102712.38;5067741;28;20064;-67
2023/03/04 03:51:45;;;;;;;15.20;2.13;;;;;;;12.71;44.46;102711.28;5067216;28;20118;-67
2023/03/04 03:54:10;;;;;;;19.63;2.47;;;;;;;12.73;43.41;102704.34;5065076;28;20021;-67
2023/03/04 03:56:35;;;;;;;15.70;2.17;;;;;;;12.76;43.74;102705.22;5067569;28;20025;-67
2023/03/04 03:59:01;;;;;;;9.83;1.80;;;;;;;12.70;43.44;102712.16;5066640;28;20027;-67
2023/03/04 04:01:26;;;;;;;16.37;1.93;;;;;;;11.89;45.48;102717.22;5064117;28;20025;-67
2023/03/04 04:03:51;;;;;;;12.20;2.20;;;;;;;13.23;43.25;102717.94;5066191;28;20036;-67
2023/03/04 04:06:17;;;;;;;9.73;2.27;;;;;;;12.59;44.17;102712.91;5066281;28;20032;-67
2023/03/04 04:08:43;;;;;;;12.40;3.73;;;;;;;12.32;44.70;102712.59;5066655;28;20032;-67
2023/03/04 04:11:12;;;;;;;13.17;4.00;;;;;;;11.67;46.37;102722.13;5067203;28;20028;-67
2023/03/04 04:13:37;;;;;;;14.20;4.83;;;;;;;11.31;46.52;102715.44;5068016;28;20100;-67
2023/03/04 04:16:03;;;;;;;10.57;4.10;;;;;;;11.83;45.45;102719.75;5064238;28;20024;-67
2023/03/04 04:18:28;;;;;;;14.90;4.90;;;;;;;12.08;45.13;102720.16;5068579;28;20839;-67
2023/03/04 04:20:54;;;;;;;14.23;3.20;;;;;;;12.48;44.87;102716.28;5070963;28;20059;-67
2023/03/04 04:23:19;;;;;;;11.03;2.63;;;;;;;11.54;46.32;102722.81;5070635;28;20040;-70
2023/03/04 04:25:45;;;;;;;12.13;3.90;;;;;;;13.07;43.60;102702.03;5070174;28;20033;-67
2023/03/04 04:28:10;;;;;;;18.83;3.27;;;;;;;12.77;44.05;102706.97;5070128;28;20371;-68
2023/03/04 04:30:36;;;;;;;14.20;2.13;;;;;;;12.39;43.79;102717.06;5068361;28;20491;-67
2023/03/04 04:33:03;;;;;;;11.03;2.87;;;;;;;12.94;43.31;102710.66;5071430;28;20024;-67
2023/03/04 04:35:32;;;;;;;10.70;2.60;;;;;;;12.77;43.37;102717.47;5069525;28;20024;-67
2023/03/04 04:37:57;;;;;;;10.17;2.00;;;;;;;11.38;46.50;102725.16;5068094;28;20054;-67
2023/03/04 04:40:23;;;;;;;12.83;3.10;;;;;;;12.38;44.29;102715.28;5070996;28;20040;-67
2023/03/04 04:42:48;;;;;;;18.47;2.57;;;;;;;12.59;43.00;102713.78;5070762;28;20288;-67
2023/03/04 04:45:14;;;;;;;9.77;2.70;;;;;;;12.11;45.11;102720.19;5070267;28;20029;-67
2023/03/04 04:47:39;;;;;;;10.17;2.10;;;;;;;11.46;45.84;102719.19;5070764;28;20053;-67
2023/03/04 04:50:05;;;;;;;12.17;2.07;;;;;;;11.83;45.45;102722.38;5069434;28;20328;-67
2023/03/04 04:52:31;;;;;;;14.77;1.83;;;;;;;11.64;45.61;102724.69;5067777;28;20060;-67
2023/03/04 04:54:56;;;;;;;13.60;1.90;;;;;;;11.56;45.81;102721.06;5068957;28;20063;-67
2023/03/04 04:57:22;;;;;;;11.90;1.63;;;;;;;10.86;47.09;102732.06;5068667;28;20031;-67
2023/03/04 04:59:47;;;;;;;7.93;1.70;;;;;;;10.90;46.83;102723.44;5070204;28;20020;-67
2023/03/04 05:02:13;;;;;;;15.53;1.73;;;;;;;11.29;46.89;102726.72;5068776;28;20074;-67
2023/03/04 05:04:38;;;;;;;19.60;3.57;;;;;;;11.98;45.49;102729.59;5066785;28;20031;-67
2023/03/04 05:07:03;;;;;;;9.77;1.60;;;;;;;11.88;44.58;102731.16;5069253;28;20031;-67
2023/03/04 05:09:29;;;;;;;13.17;1.70;;;;;;;11.68;45.73;102723.88;5069486;28;20571;-68
2023/03/04 05:11:55;;;;;;;9.87;1.60;;;;;;;12.82;43.35;102715.78;5049421;28;20060;-68
2023/03/04 05:14:20;;;;;;;8.40;1.37;;;;;;;12.33;44.25;102716.97;5066235;28;20055;-68
2023/03/04 05:16:46;;;;;;;9.67;2.10;;;;;;;12.11;44.21;102725.41;5067593;28;20036;-68
2023/03/04 05:19:12;;;;;;;10.20;1.63;;;;;;;12.81;43.21;102725.38;5068723;28;20012;-68
2023/03/04 05:21:37;;;;;;;11.10;1.97;;;;;;;11.65;45.79;102723.84;5069059;28;20047;-68
2023/03/04 05:24:03;;;;;;;17.27;1.97;;;;;;;11.93;45.54;102732.13;5070571;28;20138;-68
2023/03/04 05:26:28;;;;;;;7.37;1.57;;;;;;;12.50;44.48;102718.91;5068481;28;20025;-67
2023/03/04 05:28:53;;;;;;;7.93;1.57;;;;;;;11.81;45.76;102729.31;5070022;28;20025;-68
2023/03/04 05:31:19;;;;;;;12.53;2.47;;;;;;;12.04;45.44;102730.56;5068507;28;20032;-67
2023/03/04 05:33:44;;;;;;;13.50;2.13;;;;;;;11.62;46.73;102721.19;5068019;28;20032;-67
2023/03/04 05:36:10;;;;;;;12.70;2.20;;;;;;;11.83;46.05;102727.63;5067326;28;20033;-68
2023/03/04 05:38:35;;;;;;;16.23;2.53;;;;;;;12.26;45.17;102720.38;5068713;28;20085;-67
2023/03/04 05:41:04;;;;;;;21.03;3.23;;;;;;;12.67;44.73;102717.38;5067126;28;20016;-68
2023/03/04 05:43:31;;;;;;;15.27;2.20;;;;;;;12.45;44.98;102726.72;5070005;28;20056;-68
2023/03/04 05:45:56;;;;;;;8.57;1.93;;;;;;;12.27;45.91;102730.00;5068771;28;20411;-68
2023/03/04 05:48:22;;;;;;;13.13;1.77;;;;;;;11.59;47.34;102731.59;5069449;28;20025;-67
2023/03/04 05:50:53;;;;;;;14.73;1.57;;;;;;;11.66;48.51;102728.25;5067996;28;20081;-67
2023/03/04 05:53:18;;;;;;;21.63;3.03;;;;;;;11.77;49.08;102719.66;5068390;28;20021;-67
2023/03/04 05:55:47;;;;;;;7.93;2.03;;;;;;;11.34;49.08;102719.84;5068375;28;20035;-67
2023/03/04 05:58:13;;;;;;;10.43;2.10;;;;;;;11.44;50.00;102718.25;5070546;28;20529;-67
2023/03/04 06:00:39;;;;;;;10.53;1.93;;;;;;;11.56;49.68;102715.84;5067539;28;20488;-68
2023/03/04 06:03:04;;;;;;;10.13;2.57;;;;;;;12.35;47.45;102715.25;5069708;28;20123;-67
2023/03/04 06:05:30;;;;;;;15.73;2.57;;;;;;;12.30;47.73;102714.31;5066806;28;20094;-67
2023/03/04 06:07:55;;;;;;;21.53;3.73;;;;;;;11.92;48.49;102717.25;5066896;28;20119;-67
2023/03/04 06:10:21;;;;;;;14.57;2.60;;;;;;;12.06;47.71;102717.47;5067557;28;20032;-68
2023/03/04 06:12:46;;;;;;;12.07;3.80;;;;;;;11.87;48.32;102721.56;5068949;28;20033;-68
2023/03/04 06:15:12;;;;;;;18.60;3.83;;;;;;;12.39;47.21;102717.06;5066507;28;20541;-68
2023/03/04 06:17:39;;;;;;;18.50;4.97;;;;;;;11.79;49.07;102718.81;5068702;28;20510;-68
2023/03/04 06:20:05;;;;;;;14.17;2.90;;;;;;;11.71;50.13;102708.22;5068049;28;20438;-68
2023/03/04 06:22:32;;;;;;;16.80;3.03;;;;;;;11.77;48.85;102722.28;5067257;28;20104;-68
2023/03/04 06:24:57;;;;;;;15.27;3.20;;;;;;;12.58;47.21;102712.00;5066595;28;20024;-68
2023/03/04 06:27:23;;;;;;;18.77;3.77;;;;;;;12.10;48.61;102718.41;5066905;28;20043;-68
2023/03/04 06:29:48;;;;;;;11.33;3.37;;;;;;;12.87;47.15;102721.94;5066793;28;20025;-68
2023/03/04 06:32:14;;;;;;;14.80;2.60;;;;;;;12.64;47.26;102721.69;5067973;28;20036;-68
2023/03/04 06:34:39;;;;;;;10.03;2.47;;;;;;;12.36;47.55;102722.28;5067954;28;20035;-68
2023/03/04 06:37:04;;;;;;;8.37;3.60;;;;;;;12.94;46.44;102721.16;5065104;28;20823;-68
2023/03/04 06:39:30;;;;;;;10.40;3.47;;;;;;;12.76;46.77;102710.47;5066874;28;20043;-66
2023/03/04 06:41:55;;;;;;;11.33;3.23;;;;;;;13.19;45.21;102717.03;5065444;28;20260;-68
2023/03/04 06:44:21;;;;;;;24.10;5.80;;;;;;;13.54;44.35;102721.72;5067642;28;20036;-68
2023/03/04 06:46:46;;;;;;;32.17;9.07;;;;;;;13.03;45.91;102715.13;5062474;28;20109;-68
2023/03/04 06:49:11;;;;;;;20.27;5.17;;;;;;;13.19;45.11;102724.03;5069040;28;20016;-68
2023/03/04 06:51:37;;;;;;;22.70;6.87;;;;;;;13.36;44.29;102730.31;5063895;28;20027;-67
2023/03/04 06:54:02;;;;;;;19.33;4.50;;;;;;;13.40;44.40;102729.47;5067344;28;20024;-67
2023/03/04 06:56:28;;;;;;;12.27;3.27;;;;;;;13.49;44.11;102731.31;5068260;28;20142;-68
2023/03/04 06:58:53;;;;;;;12.83;2.67;;;;;;;13.13;45.29;102726.59;5061561;28;20379;-67
2023/03/04 07:01:24;;;;;;;8.27;2.57;;;;;;;13.23;45.48;102733.69;5062377;28;20560;-68
2023/03/04 07:03:51;;;;;;;13.60;3.30;;;;;;;13.36;45.05;102719.81;5061990;28;20488;-68
2023/03/04 07:06:20;;;;;;;10.57;2.53;;;;;;;13.01;45.70;102736.09;5064648;28;20559;-68
2023/03/04 07:08:45;;;;;;;11.80;2.90;;;;;;;13.63;43.67;102734.06;5064869;28;20028;-67
2023/03/04 07:11:11;;;;;;;6.17;2.00;;;;;;;12.82;45.82;102729.78;5066255;28;20034;-67
2023/03/04 07:13:37;;;;;;;14.90;2.17;;;;;;;13.48;44.56;102741.81;5064180;28;20040;-67
2023/03/04 07:16:14;;;;;;;5.90;2.10;;;;;;;13.65;43.96;102741.94;5065876;28;20024;-67
2023/03/04 07:18:40;;;;;;;12.00;2.07;;;;;;;13.89;43.69;102736.00;5065685;28;20111;-67
2023/03/04 07:21:06;;;;;;;11.17;1.73;;;;;;;13.58;44.30;102746.28;5067256;28;20070;-67
2023/03/04 07:23:33;;;;;;;10.77;2.33;;;;;;;12.70;46.69;102748.00;5068404;28;20035;-67
2023/03/04 07:25:58;;;;;;;11.77;2.57;;;;;;;12.66;47.67;102752.34;5067863;28;20488;-67
2023/03/04 07:28:24;;;;;;;13.17;1.93;;;;;;;11.56;49.90;102765.59;5066255;28;20035;-67
2023/03/04 07:30:49;;;;;;;6.83;1.10;;;;;;;10.57;55.22;102771.59;5064959;28;20035;-67
2023/03/04 07:33:15;;;;;;;6.13;1.27;;;;;;;11.45;52.21;102769.78;5066554;28;20117;-67
2023/03/04 07:35:41;;;;;;;7.47;1.30;;;;;;;12.11;53.21;102762.97;5066888;28;20021;-67
2023/03/04 07:38:06;;;;;;;12.70;1.40;;;;;;;12.71;51.51;102761.16;5066887;28;20032;-67
2023/03/04 07:40:32;;;;;;;4.80;1.20;;;;;;;12.51;50.85;102762.66;5066031;28;20440;-67
2023/03/04 07:42:57;;;;;;;10.73;1.43;;;;;;;11.87;52.62;102766.09;5068165;28;20047;-68
2023/03/04 07:45:23;;;;;;;6.43;1.33;;;;;;;12.33;51.36;102777.28;5067136;28;20103;-67
2023/03/04 07:47:49;;;;;;;17.63;1.63;;;;;;;12.89;51.00;102764.84;5064754;28;20492;-67
2023/03/04 07:50:15;;;;;;;7.63;0.90;;;;;;;12.57;51.00;102765.38;5066954;28;20115;-67
2023/03/04 07:52:44;;;;;;;4.43;1.13;;;;;;;13.05;49.68;102761.53;5068132;28;20068;-67
2023/03/04 07:55:11;;;;;;;5.40;1.10;;;;;;;13.73;48.57;102767.41;5069999;28;20032;-67
2023/03/04 07:57:43;;;;;;;10.33;1.90;;;;;;;12.78;49.84;102779.59;5070636;28;20496;-66
2023/03/04 08:00:10;;;;;;;;;;;;;;;13.67;48.69;102783.13;5070984;28;20024;-67
2023/03/04 08:02:35;;;;;;;4.07;1.10;;;;;;;13.15;49.35;102782.63;5071152;28;19918;-67
2023/03/04 08:05:00;;;;;;;6.23;1.00;;;;;;;12.62;51.59;102789.88;5069328;28;20036;-67
2023/03/04 08:07:26;;;;;;;5.90;1.20;;;;;;;14.18;48.45;102780.00;5064647;28;20035;-68
2023/03/04 08:09:51;;;;;;;8.10;1.20;;;;;;;13.29;50.83;102781.00;5070974;28;20060;-67
2023/03/04 08:12:17;;;;;;;4.40;1.17;;;;;;;14.09;48.51;102783.41;5070881;28;20032;-67
2023/03/04 08:14:42;;;;;;;6.47;1.30;;;;;;;12.58;52.29;102795.09;5069327;28;20563;-67
2023/03/04 08:17:08;;;;;;;9.57;1.23;;;;;;;13.14;50.46;102775.63;5069440;28;20387;-67
2023/03/04 08:19:34;;;;;;;6.23;0.80;;;;;;;12.89;51.07;102780.59;5069797;28;20028;-67
2023/03/04 08:22:00;;;;;;;7.83;0.80;;;;;;;13.36;49.97;102782.84;5070129;28;20035;-67
2023/03/04 08:24:26;;;;;;;6.40;1.33;;;;;;;13.00;51.09;102781.59;5068099;28;20028;-67
2023/03/04 08:26:51;;;;;;;5.70;1.33;;;;;;;13.10;50.25;102779.06;5068030;28;20029;-67
2023/03/04 08:29:20;;;;;;;5.57;1.20;;;;;;;13.70;48.99;102777.91;5069652;28;20040;-67
2023/03/04 08:31:47;;;;;;;6.80;1.50;;;;;;;14.22;47.89;102787.03;5065848;28;20024;-68
2023/03/04 08:34:13;;;;;;;4.50;1.33;;;;;;;13.86;47.54;102778.91;5086166;28;20067;-67
2023/03/04 08:36:41;;;;;;;8.33;1.67;;;;;;;14.60;46.78;102783.69;5075999;28;20028;-68
2023/03/04 08:39:07;;;;;;;4.57;1.33;;;;;;;14.60;46.22;102778.41;5069718;28;20032;-69
2023/03/04 08:41:33;;;;;;;4.17;1.00;;;;;;;14.18;47.08;102782.63;5069528;28;20020;-67
2023/03/04 08:43:59;;;;;;;2.10;0.80;;;;;;;13.86;47.81;102778.00;5067894;28;20399;-68
2023/03/04 08:46:24;;;;;;;5.40;1.33;;;;;;;14.50;48.01;102772.25;5069764;28;20049;-68
2023/03/04 08:48:50;;;;;;;6.87;0.90;;;;;;;15.55;45.00;102771.63;5069788;28;20032;-68
2023/03/04 08:51:16;;;;;;;2.07;0.70;;;;;;;15.87;44.11;102765.50;5065963;28;20104;-68
2023/03/04 08:53:41;;;;;;;7.27;1.30;;;;;;;15.13;45.18;102768.09;5067403;28;20496;-68
2023/03/04 08:56:08;;;;;;;4.23;1.00;;;;;;;13.69;47.84;102773.50;5069235;28;20742;-68
2023/03/04 08:58:34;;;;;;;3.70;1.43;;;;;;;13.14;50.28;102765.09;5067255;28;20020;-69
2023/03/04 09:01:00;;;;;;;5.80;0.90;;;;;;;13.66;48.41;102772.63;5069576;28;20036;-68
2023/03/04 09:03:26;;;;;;;2.20;0.77;;;;;;;14.39;47.52;102766.06;5068813;28;20149;-68
2023/03/04 09:05:51;;;;;;;3.90;0.90;;;;;;;14.04;48.09;102762.38;5066689;28;20128;-68
2023/03/04 09:08:17;;;;;;;3.97;1.00;;;;;;;13.14;51.45;102765.09;5068961;28;20039;-69
2023/03/04 09:10:44;;;;;;;5.07;0.80;;;;;;;12.80;50.93;102764.75;5066829;28;20040;-69
2023/03/04 09:13:11;;;;;;;4.70;1.13;;;;;;;11.92;54.92;102772.28;5056743;28;20059;-68
2023/03/04 09:15:42;;;;;;;4.00;1.00;;;;;;;12.65;54.30;102771.59;5050554;28;20083;-68
2023/03/04 09:18:08;;;;;;;5.80;1.20;;;;;;;12.64;52.75;102759.31;5064438;28;20032;-68
2023/03/04 09:20:34;;;;;;;5.03;0.90;;;;;;;12.71;53.26;102766.41;5067325;28;20042;-68
2023/03/04 09:23:00;;;;;;;7.47;1.50;;;;;;;13.16;52.94;102763.38;5068289;28;20040;-69
2023/03/04 09:25:25;;;;;;;2.93;0.70;;;;;;;14.16;50.40;102765.94;5064645;28;20029;-69
2023/03/04 09:27:51;;;;;;;4.20;0.77;;;;;;;14.35;48.10;102762.53;5063623;28;20040;-69
2023/03/04 09:30:16;;;;;;;6.30;1.40;;;;;;;14.60;47.96;102762.63;5059904;28;20063;-69
2023/03/04 09:32:42;;;;;;;3.70;1.10;;;;;;;14.06;49.50;102755.34;5069876;28;20437;-67
2023/03/04 09:35:08;;;;;;;2.37;1.27;;;;;;;14.00;50.76;102760.59;5060954;28;20036;-67
2023/03/04 09:37:34;;;;;;;7.53;1.90;;;;;;;13.03;52.77;102750.13;5068597;28;20028;-68
2023/03/04 09:40:00;;;;;;;3.80;1.40;;;;;;;13.90;50.47;102757.03;5067761;28;20093;-67
2023/03/04 09:42:35;;;;;;;2.63;0.77;;;;;;;13.79;50.95;102752.56;5065321;28;20059;-70
2023/03/04 09:45:02;;;;;;;3.10;0.67;;;;;;;14.48;49.03;102746.78;5061820;28;20028;-67
2023/03/04 09:47:29;;;;;;;12.23;1.10;;;;;;;13.81;49.97;102748.22;5048094;28;20049;-67
2023/03/04 09:50:01;;;;;;;1.80;0.57;;;;;;;14.12;51.06;102753.63;5051630;28;20044;-68
2023/03/04 09:53:01;;;;;;;9.35;1.40;;;;;;;13.69;55.33;102757.72;5067972;28;20033;-68
2023/03/04 09:55:34;;;;;;;3.77;0.63;;;;;;;12.96;58.87;102758.78;5066932;28;20032;-67
2023/03/04 09:58:20;;;;;;;3.93;1.30;;;;;;;13.43;58.06;102762.78;5067526;28;20069;-67
2023/03/04 10:01:10;;;;;;;4.57;1.90;;;;;;;12.92;59.61;102757.00;5057063;28;20039;-67
2023/03/04 10:03:47;;;;;;;7.40;1.13;;;;;;;13.81;59.76;102758.72;5068472;28;20106;-67
2023/03/04 10:06:17;;;;;;;1.60;0.83;;;;;;;12.65;62.87;102761.09;5069130;28;20032;-67
2023/03/04 10:09:14;;;;;;;4.90;0.70;;;;;;;13.50;61.54;102761.97;5064119;28;20124;-68
2023/03/04 10:12:08;;;;;;;0.83;0.40;;;;;;;13.05;62.34;102761.53;5065609;28;20870;-67
2023/03/04 10:14:50;;;;;;;3.17;0.80;;;;;;;13.79;60.76;102761.31;5055770;28;20542;-68
2023/03/04 10:17:39;;;;;;;4.00;0.87;;;;;;;12.51;66.58;102763.50;5067140;28;20027;-68
2023/03/04 10:20:22;;;;;;;1.33;0.50;;;;;;;13.06;65.47;102752.78;5068182;28;20023;-68
2023/03/04 10:22:55;;;;;;;3.50;0.97;;;;;;;13.87;61.43;102756.13;5064999;28;20052;-69
2023/03/04 10:25:26;;;;;;;6.80;3.03;;;;;;;13.76;59.49;102749.91;5066558;28;20029;-69
2023/03/04 10:28:06;;;;;;;1.27;0.80;;;;;;;13.69;60.88;102754.25;5066023;28;20031;-68
2023/03/04 10:30:50;;;;;;;2.27;1.00;;;;;;;13.78;60.49;102748.16;5052783;28;20033;-69
2023/03/04 10:33:21;;;;;;;6.27;1.10;;;;;;;14.15;61.15;102743.13;5066846;28;20127;-68
2023/03/04 10:36:00;;;;;;;7.40;1.20;;;;;;;14.17;58.13;102747.53;5065970;28;20090;-68
2023/03/04 10:38:30;;;;;;;9.00;1.23;;;;;;;14.85;56.75;102741.69;5068205;28;20020;-70
2023/03/04 10:40:57;;;;;;;5.80;1.30;;;;;;;13.77;58.37;102742.03;5065855;28;20429;-69
2023/03/04 10:43:22;;;;;;;3.73;0.97;;;;;;;13.96;57.96;102743.03;5060228;28;20024;-69
2023/03/04 10:45:55;;;;;;;9.10;1.50;;;;;;;14.60;55.77;102744.22;5046076;28;20124;-69
2023/03/04 10:48:26;;;;;;;7.20;1.30;;;;;;;15.18;53.12;102734.72;5049275;28;20064;-69
2023/03/04 10:50:52;;;;;;;6.27;1.40;;;;;;;16.04;51.57;102729.41;5064215;28;20086;-69
2023/03/04 10:53:29;;;;;;;4.40;0.90;;;;;;;13.74;54.37;102735.00;5067067;28;20434;-69
2023/03/04 10:55:55;;;;;;;2.60;0.70;;;;;;;13.34;55.07;102736.38;5065546;28;20032;-69
2023/03/04 10:58:20;;;;;;;10.03;1.53;;;;;;;14.59;51.64;102724.06;5066005;28;20101;-69
2023/03/04 11:01:02;;;;;;;4.73;1.00;;;;;;;14.70;51.48;102726.72;5065184;28;20375;-69
2023/03/04 11:03:35;;;;;;;4.70;1.27;;;;;;;13.94;51.71;102722.88;5065415;28;20097;-69
2023/03/04 11:06:09;;;;;;;;;;;;;;;14.74;51.66;102718.88;5067450;28;20028;-69
2023/03/04 11:08:35;;;;;;;5.53;1.00;;;;;;;15.08;49.82;102712.75;5066077;28;20007;-69
2023/03/04 11:11:00;;;;;;;4.50;1.57;;;;;;;15.16;48.00;102716.28;5064758;28;20123;-69
2023/03/04 11:13:26;;;;;;;6.47;1.57;;;;;;;15.41;47.70;102709.28;5065629;28;20040;-69
2023/03/04 11:15:57;;;;;;;2.40;0.97;;;;;;;15.09;50.01;102715.41;5063522;28;20044;-69
2023/03/04 11:18:33;;;;;;;5.13;1.10;;;;;;;14.59;50.89;102716.16;5065653;28;20032;-69
2023/03/04 11:20:59;;;;;;;9.30;1.10;;;;;;;13.77;53.84;102705.25;5066426;28;20043;-69
2023/03/04 11:24:03;;;;;;;9.20;1.40;;;;;;;13.41;56.16;102719.88;5065702;28;20028;-69